Airfield :
LOGIN :

Register | Disclaimer

   EN    FR    IT 

 










Legend :    VFR   Marginal VFR   IFR   Intensive IFR   Very Intensive IFR
Visi :
Ceiling :
>= 8 km
>= 3000ft
5 to 8 km
1000 to 3000 ft
1500m to 5 km
500 to 1000 ft
800 to 1500m
200 to 500 ft
< 800m
< 200 ft
Symbols :   Thunderstorms  Fog  Heavy snow  Heavy precipitations  Wind > 20 kt
SIGMETs :     Misc.  Thunderstorms  Icing  Turbulence  Mountain Waves  Volcanic Ashes






- Airport Elevation : 2302 ft


LEAB - Albacete

CURRENT METAR :
  • 011530Z 12005KT 080V150 CAVOK 14/M06 Q1025 NOSIG

EXPIRED METARs :
  • 011500Z 06005KT 350V120 CAVOK 13/M05 Q1026 NOSIG
  • 011430Z 07005KT 030V110 CAVOK 12/M05 Q1026 NOSIG
  • 011400Z 05007KT 020V080 CAVOK 12/M04 Q1026 NOSIG
  • 011330Z 03004KT 340V060 CAVOK 12/M04 Q1026 NOSIG
  • 011300Z 03004KT 360V060 CAVOK 10/M04 Q1027 NOSIG
  • 011230Z 03004KT 350V080 CAVOK 10/M04 Q1027 NOSIG

TAF TAF LEAB
Valid from the 01 at 12:00 until the 02 at 12:00 UTC


011100Z 0112/0212 VRB03KT CAVOK TX13/0115Z TNM06/0206Z
PROB40
TEMPO 0122/0209 0200 FZFG VV002
PROB40
TEMPO 0208/0210 3000 BR BKN003



MET'MAP, your aeronautical weather chart ! - Copyright ORBIFLY December 2007 - Disclaimer

ORBIFLY MET'MAP TEAM :

Programming & Development : Alexandra Zaïnal
Original concept : Baudouin d'Aumeries
Technical & hardware support : Manuel Goepfert
Assistance : Marc-Olivier Méhu




SOURCES & CREDITS :

   NOAA